createdAt,value
2019-04-16T00:00:57.051Z,8.54
2019-04-16T00:02:36.979Z,8.53
2019-04-16T00:03:41.815Z,8.58
2019-04-16T00:05:02.066Z,8.58
2019-04-16T00:06:14.600Z,8.58
2019-04-16T00:07:40.770Z,8.61
2019-04-16T00:08:56.985Z,8.58
2019-04-16T00:10:14.470Z,8.61
2019-04-16T00:11:35.918Z,8.53
2019-04-16T00:13:00.638Z,8.58
2019-04-16T00:14:17.930Z,8.52
2019-04-16T00:15:20.863Z,8.47
2019-04-16T00:16:23.752Z,8.47
2019-04-16T00:17:26.552Z,8.45
2019-04-16T00:18:29.857Z,8.48
2019-04-16T00:19:34.707Z,8.55
2019-04-16T00:20:45.087Z,8.52
2019-04-16T00:22:02.332Z,8.52
2019-04-16T00:23:14.437Z,8.46
2019-04-16T00:24:29.248Z,8.47
2019-04-16T00:25:34.231Z,8.45
2019-04-16T00:26:38.014Z,8.45
2019-04-16T00:27:41.137Z,8.44
2019-04-16T00:28:44.780Z,8.40
2019-04-16T00:29:49.099Z,8.41
2019-04-16T00:30:53.886Z,8.41
2019-04-16T00:32:18.066Z,8.40
2019-04-16T00:33:20.899Z,8.40
2019-04-16T00:34:27.882Z,8.40
2019-04-16T00:35:30.732Z,8.42
2019-04-16T00:36:33.640Z,8.41
2019-04-16T00:37:36.485Z,8.41
2019-04-16T00:38:44.511Z,8.36
2019-04-16T00:39:48.538Z,8.36
2019-04-16T00:40:55.489Z,8.30
2019-04-16T00:42:01.130Z,8.32
2019-04-16T00:43:05.443Z,8.31
2019-04-16T00:44:08.265Z,8.39
2019-04-16T00:45:11.091Z,8.34
2019-04-16T00:46:13.981Z,8.24
2019-04-16T00:47:17.212Z,8.24
2019-04-16T00:48:20.038Z,8.24
2019-04-16T00:49:26.322Z,8.27
2019-04-16T00:50:27.322Z,8.27
2019-04-16T00:51:30.139Z,8.26
2019-04-16T00:52:36.665Z,8.20
2019-04-16T00:53:39.166Z,8.20
2019-04-16T00:54:43.246Z,8.24
2019-04-16T00:55:46.178Z,8.16
2019-04-16T00:56:49.013Z,8.10
2019-04-16T00:57:51.921Z,8.04
2019-04-16T00:58:54.811Z,8.04
2019-04-16T00:59:57.993Z,8.04
2019-04-16T01:01:02.826Z,8.10
2019-04-16T01:02:05.791Z,8.13
2019-04-16T01:03:11.688Z,8.08
2019-04-16T01:04:16.817Z,8.16
2019-04-16T01:05:19.701Z,8.21
2019-04-16T01:06:22.807Z,8.15
2019-04-16T01:07:25.630Z,8.15
2019-04-16T01:08:28.436Z,8.10
2019-04-16T01:09:31.231Z,8.01
2019-04-16T01:10:34.120Z,8.10
2019-04-16T01:11:37.017Z,8.11
2019-04-16T01:12:40.201Z,8.11
2019-04-16T01:13:43.915Z,8.08
2019-04-16T01:14:47.272Z,8.06
2019-04-16T01:15:50.081Z,8.10
2019-04-16T01:16:52.907Z,8.10
2019-04-16T01:17:55.724Z,8.06
2019-04-16T01:18:59.261Z,8.06
2019-04-16T01:20:02.222Z,8.13
2019-04-16T01:21:05.187Z,8.12
2019-04-16T01:22:08.066Z,8.14
2019-04-16T01:23:10.952Z,8.14
2019-04-16T01:24:17.531Z,8.02
2019-04-16T01:25:20.315Z,8.02
2019-04-16T01:26:26.855Z,7.98
2019-04-16T01:27:34.232Z,7.88
2019-04-16T01:28:40.406Z,7.85
2019-04-16T01:29:43.226Z,7.93
2019-04-16T01:30:55.066Z,7.90
2019-04-16T01:32:15.029Z,7.90
2019-04-16T01:33:24.135Z,7.90
2019-04-16T01:34:47.130Z,7.89
2019-04-16T01:36:02.511Z,7.85
2019-04-16T01:37:42.992Z,7.85
2019-04-16T01:39:14.924Z,7.94
2019-04-16T01:40:03.659Z,7.93
2019-04-16T01:41:09.310Z,7.88
2019-04-16T01:42:12.241Z,7.83
2019-04-16T01:43:15.101Z,7.86
2019-04-16T01:44:18.203Z,7.76
2019-04-16T01:45:21.100Z,7.65
2019-04-16T01:46:23.898Z,7.78
2019-04-16T01:47:27.196Z,7.84
2019-04-16T01:48:30.613Z,7.87
2019-04-16T01:49:33.423Z,7.88
2019-04-16T01:50:36.703Z,7.82
2019-04-16T01:51:39.487Z,7.87
2019-04-16T01:52:42.296Z,7.86
2019-04-16T01:53:46.222Z,7.84
2019-04-16T01:54:51.362Z,7.79
2019-04-16T01:55:56.735Z,7.86
2019-04-16T01:56:59.930Z,7.88
2019-04-16T01:58:03.936Z,7.87
2019-04-16T01:59:06.875Z,7.85
2019-04-16T02:00:10.690Z,7.82
2019-04-16T02:01:17.022Z,7.79
2019-04-16T02:02:19.846Z,7.82
2019-04-16T02:03:23.188Z,7.74
2019-04-16T02:04:25.988Z,7.75
2019-04-16T02:05:28.894Z,7.85
2019-04-16T02:06:31.707Z,7.85
2019-04-16T02:07:35.262Z,7.80
2019-04-16T02:08:38.119Z,7.72
2019-04-16T02:09:41.849Z,7.63
2019-04-16T02:10:44.791Z,7.58
2019-04-16T02:11:47.632Z,7.64
2019-04-16T02:12:50.463Z,7.66
2019-04-16T02:13:53.269Z,7.65
2019-04-16T02:14:56.101Z,7.66
2019-04-16T02:15:59.581Z,7.61
2019-04-16T02:17:02.676Z,7.66
2019-04-16T02:18:05.555Z,7.65
2019-04-16T02:19:08.409Z,7.67
2019-04-16T02:20:11.234Z,7.63
2019-04-16T02:21:14.101Z,7.63
2019-04-16T02:22:17.884Z,7.61
2019-04-16T02:23:20.756Z,7.66
2019-04-16T02:24:23.655Z,7.75
2019-04-16T02:25:27.157Z,7.78
2019-04-16T02:26:30.354Z,7.74
2019-04-16T02:27:33.277Z,7.69
2019-04-16T02:28:36.539Z,7.53
2019-04-16T02:29:39.359Z,7.46
2019-04-16T02:30:42.186Z,7.57
2019-04-16T02:31:47.955Z,7.65
2019-04-16T02:32:49.850Z,7.61
2019-04-16T02:33:52.651Z,7.67
2019-04-16T02:34:55.899Z,7.61
2019-04-16T02:35:58.707Z,7.51
2019-04-16T02:37:03.175Z,7.51
2019-04-16T02:38:10.435Z,7.51
2019-04-16T02:39:10.567Z,7.46
2019-04-16T02:40:18.487Z,7.44
2019-04-16T02:41:23.381Z,7.44
2019-04-16T02:42:32.081Z,7.38
2019-04-16T02:43:39.632Z,7.45
2019-04-16T02:44:39.818Z,7.47
2019-04-16T02:45:43.123Z,7.43
2019-04-16T02:46:46.631Z,7.42
2019-04-16T02:47:49.420Z,7.48
2019-04-16T02:48:55.544Z,7.54
2019-04-16T02:49:59.566Z,7.53
2019-04-16T02:51:26.830Z,7.50
2019-04-16T02:52:52.495Z,7.45
2019-04-16T02:54:10.638Z,7.45
2019-04-16T02:55:32.165Z,7.44
2019-04-16T02:56:56.943Z,7.40
2019-04-16T02:58:07.938Z,7.40
2019-04-16T02:59:15.775Z,7.36
2019-04-16T03:00:35.669Z,7.32
2019-04-16T03:02:09.719Z,7.27
2019-04-16T03:03:16.699Z,7.11
2019-04-16T03:04:26.737Z,7.02
2019-04-16T03:05:36.082Z,7.02
2019-04-16T03:06:38.982Z,7.02
2019-04-16T03:07:41.890Z,7.04
2019-04-16T03:08:45.055Z,6.98
2019-04-16T03:10:00.652Z,6.98
2019-04-16T03:10:52.407Z,6.94
2019-04-16T03:11:55.355Z,7.02
2019-04-16T03:12:58.126Z,7.05
2019-04-16T03:14:00.901Z,7.04
2019-04-16T03:15:04.363Z,7.00
2019-04-16T03:16:24.212Z,6.97
2019-04-16T03:17:42.959Z,6.98
2019-04-16T03:19:00.291Z,7.00
2019-04-16T03:20:04.259Z,6.93
2019-04-16T03:21:07.082Z,6.86
2019-04-16T03:22:12.908Z,6.85
2019-04-16T03:23:18.216Z,6.85
2019-04-16T03:24:21.385Z,6.99
2019-04-16T03:25:24.175Z,6.97
2019-04-16T03:26:27.023Z,6.97
2019-04-16T03:27:29.919Z,6.92
2019-04-16T03:28:33.104Z,6.78
2019-04-16T03:29:36.002Z,6.41
2019-04-16T03:30:42.282Z,6.39
2019-04-16T03:31:43.254Z,6.39
2019-04-16T03:32:52.147Z,6.38
2019-04-16T03:33:55.186Z,6.35
2019-04-16T03:34:58.315Z,6.29
2019-04-16T03:36:01.120Z,6.29
2019-04-16T03:37:03.991Z,6.36
2019-04-16T03:38:06.825Z,6.41
2019-04-16T03:39:13.584Z,6.40
2019-04-16T03:40:18.106Z,6.36
2019-04-16T03:41:19.879Z,6.29
2019-04-16T03:42:24.481Z,6.20
2019-04-16T03:43:29.455Z,6.23
2019-04-16T03:44:33.543Z,6.23
2019-04-16T03:45:40.135Z,6.25
2019-04-16T03:46:46.064Z,6.23
2019-04-16T03:47:50.847Z,6.25
2019-04-16T03:48:52.683Z,6.30
2019-04-16T03:49:59.453Z,6.35
2019-04-16T03:51:06.024Z,6.37
2019-04-16T03:52:09.935Z,6.40
2019-04-16T03:53:16.293Z,6.42
2019-04-16T03:54:18.819Z,6.42
2019-04-16T03:55:25.392Z,6.36
2019-04-16T03:56:27.572Z,6.26
2019-04-16T03:57:33.220Z,6.34
2019-04-16T03:58:38.560Z,6.39
2019-04-16T03:59:41.492Z,6.41
2019-04-16T04:00:45.088Z,6.50
2019-04-16T04:01:47.990Z,6.48
2019-04-16T04:02:54.069Z,6.55
2019-04-16T04:03:57.547Z,6.53
2019-04-16T04:05:01.656Z,6.58
2019-04-16T04:06:11.965Z,6.38
2019-04-16T04:07:15.226Z,6.19
2019-04-16T04:08:18.347Z,6.06
2019-04-16T04:09:22.162Z,6.02
2019-04-16T04:10:30.942Z,5.99
2019-04-16T04:11:30.171Z,6.03
2019-04-16T04:12:33.321Z,6.03
2019-04-16T04:13:36.075Z,5.98
2019-04-16T04:14:39.305Z,5.90
2019-04-16T04:15:42.192Z,5.90
2019-04-16T04:16:44.963Z,6.02
2019-04-16T04:17:52.315Z,6.07
2019-04-16T04:18:57.371Z,6.02
2019-04-16T04:20:00.161Z,6.02
2019-04-16T04:21:03.035Z,6.01
2019-04-16T04:22:05.843Z,6.04
2019-04-16T04:23:08.618Z,6.04
2019-04-16T04:24:12.571Z,6.04
2019-04-16T04:25:15.613Z,6.07
2019-04-16T04:26:18.443Z,6.18
2019-04-16T04:27:21.291Z,6.00
2019-04-16T04:28:24.197Z,5.95
2019-04-16T04:29:29.523Z,5.91
2019-04-16T04:30:32.406Z,5.97
2019-04-16T04:31:35.596Z,6.02
2019-04-16T04:32:38.681Z,6.03
2019-04-16T04:33:42.907Z,6.03
2019-04-16T04:34:48.758Z,6.11
2019-04-16T04:35:52.054Z,6.13
2019-04-16T04:36:58.726Z,5.91
2019-04-16T04:38:00.792Z,5.79
2019-04-16T04:39:09.933Z,5.75
2019-04-16T04:40:12.967Z,5.75
2019-04-16T04:41:15.619Z,5.57
2019-04-16T04:42:19.385Z,5.67
2019-04-16T04:43:25.838Z,5.69
2019-04-16T04:44:29.031Z,5.69
2019-04-16T04:45:32.280Z,5.72
2019-04-16T04:46:37.781Z,5.66
2019-04-16T04:47:40.568Z,5.61
2019-04-16T04:48:43.457Z,5.47
2019-04-16T04:49:46.287Z,5.32
2019-04-16T04:50:52.471Z,5.41
2019-04-16T04:51:55.729Z,5.57
2019-04-16T04:52:58.624Z,5.55
2019-04-16T04:54:01.929Z,5.47
2019-04-16T04:55:04.941Z,5.31
2019-04-16T04:56:07.761Z,5.31
2019-04-16T04:57:10.820Z,5.30
2019-04-16T04:58:14.071Z,5.35
2019-04-16T04:59:17.077Z,5.39
2019-04-16T05:00:19.950Z,5.39
2019-04-16T05:01:24.306Z,5.40
2019-04-16T05:02:27.288Z,5.40
2019-04-16T05:03:44.457Z,5.42
2019-04-16T05:05:14.519Z,5.42
2019-04-16T05:06:20.852Z,5.43
2019-04-16T05:07:25.722Z,5.59
2019-04-16T05:08:29.444Z,5.59
2019-04-16T05:09:35.584Z,5.65
2019-04-16T05:10:42.780Z,5.65
2019-04-16T05:11:41.575Z,5.81
2019-04-16T05:12:44.467Z,5.87
2019-04-16T05:13:47.825Z,5.87
2019-04-16T05:14:58.494Z,5.93
2019-04-16T05:16:06.882Z,5.72
2019-04-16T05:17:08.523Z,5.70
2019-04-16T05:18:11.592Z,5.70
2019-04-16T05:19:15.609Z,5.68
2019-04-16T05:20:18.626Z,5.40
2019-04-16T05:21:24.526Z,5.22
2019-04-16T05:22:27.628Z,5.06
2019-04-16T05:23:30.471Z,5.06
2019-04-16T05:24:33.291Z,5.14
2019-04-16T05:25:36.192Z,5.17
2019-04-16T05:26:39.065Z,5.32
2019-04-16T05:27:41.972Z,5.42
2019-04-16T05:28:45.718Z,5.55
2019-04-16T05:29:49.572Z,5.70
2019-04-16T05:43:51.710Z,6.33
2019-04-16T05:44:56.240Z,6.24
2019-04-16T05:45:59.101Z,6.33
2019-04-16T05:47:03.853Z,6.28
2019-04-16T05:48:07.140Z,6.14
2019-04-16T05:49:11.778Z,6.30
2019-04-16T05:50:15.917Z,6.45
2019-04-16T05:51:18.845Z,6.42
2019-04-16T05:52:22.065Z,6.48
2019-04-16T05:53:24.935Z,6.62
2019-04-16T05:54:50.013Z,6.64
2019-04-16T05:56:14.797Z,6.64
2019-04-16T05:57:26.496Z,6.72
2019-04-16T05:58:30.852Z,6.92
2019-04-16T05:59:33.811Z,6.99
2019-04-16T06:01:00.480Z,7.09
2019-04-16T06:02:11.309Z,6.90
2019-04-16T06:03:14.207Z,7.06
2019-04-16T06:04:24.310Z,7.11
2019-04-16T06:05:27.915Z,7.20
2019-04-16T06:06:31.778Z,7.20
2019-04-16T06:07:38.005Z,7.07
2019-04-16T06:08:43.418Z,7.07
2019-04-16T06:09:46.200Z,7.15
2019-04-16T06:10:51.190Z,7.39
2019-04-16T06:11:54.589Z,7.53
2019-04-16T06:13:17.018Z,7.85
2019-04-16T06:14:26.291Z,7.85
2019-04-16T06:15:53.004Z,8.05
2019-04-16T06:17:00.657Z,7.97
2019-04-16T06:18:28.968Z,8.12
2019-04-16T06:19:50.486Z,8.31
2019-04-16T06:21:01.192Z,8.64
2019-04-16T06:22:16.265Z,8.77
2019-04-16T06:23:37.696Z,9.02
2019-04-16T06:24:58.130Z,9.39
2019-04-16T06:26:20.162Z,9.58
2019-04-16T06:27:47.826Z,9.83
2019-04-16T06:28:56.428Z,10.25
2019-04-16T06:30:20.529Z,10.25
2019-04-16T06:31:39.932Z,10.25
2019-04-16T06:33:04.997Z,10.58
2019-04-16T06:34:26.965Z,10.78
2019-04-16T06:35:57.641Z,10.75
2019-04-16T06:37:37.414Z,10.88
2019-04-16T06:38:47.523Z,10.77
2019-04-16T06:40:00.661Z,10.93
2019-04-16T06:41:06.058Z,10.96
2019-04-16T06:42:30.226Z,11.10
2019-04-16T06:43:39.719Z,11.03
2019-04-16T06:44:53.964Z,11.03
2019-04-16T06:46:08.475Z,11.19
2019-04-16T06:47:29.346Z,11.46
2019-04-16T06:48:39.635Z,11.79
2019-04-16T06:49:55.900Z,11.91
2019-04-16T06:51:11.714Z,12.06
2019-04-16T06:52:48.937Z,12.12
2019-04-16T06:54:13.011Z,12.26
2019-04-16T06:55:43.943Z,12.51
2019-04-16T06:57:09.700Z,12.23
2019-04-16T06:58:27.710Z,12.48
2019-04-16T06:59:48.267Z,12.52
2019-04-16T07:01:17.850Z,12.65
2019-04-16T07:03:01.763Z,12.79
2019-04-16T07:04:01.403Z,12.71
2019-04-16T07:05:12.244Z,12.73
2019-04-16T07:06:37.068Z,13.17
2019-04-16T07:07:54.219Z,13.09
2019-04-16T07:09:25.294Z,13.16
2019-04-16T07:10:43.713Z,13.16
2019-04-16T07:11:34.786Z,13.56
2019-04-16T07:12:42.491Z,13.56
2019-04-16T07:13:54.628Z,12.08
2019-04-16T07:15:00.130Z,12.28
2019-04-16T07:16:03.550Z,12.28
2019-04-16T07:17:06.393Z,12.38
2019-04-16T07:18:11.108Z,12.60
2019-04-16T07:19:16.655Z,13.06
2019-04-16T07:20:21.326Z,13.06
2019-04-16T07:21:27.238Z,12.85
2019-04-16T07:22:30.103Z,12.56
2019-04-16T07:23:33.064Z,12.31
2019-04-16T07:24:37.440Z,12.07
2019-04-16T07:25:43.313Z,12.07
2019-04-16T07:26:47.883Z,12.39
2019-04-16T07:28:07.434Z,12.91
2019-04-16T07:29:33.408Z,12.89
2019-04-16T07:30:45.139Z,12.31
2019-04-16T07:32:03.889Z,12.31
2019-04-16T07:33:21.632Z,12.17
2019-04-16T07:34:34.045Z,12.34
2019-04-16T07:35:55.656Z,12.32
2019-04-16T07:37:16.109Z,13.04
2019-04-16T07:38:40.212Z,13.21
2019-04-16T07:40:35.125Z,13.32
2019-04-16T07:41:43.297Z,13.65
2019-04-16T07:43:07.946Z,13.82
2019-04-16T07:44:15.894Z,14.10
2019-04-16T07:45:44.559Z,14.25
2019-04-16T07:47:06.937Z,14.25
2019-04-16T07:48:23.611Z,13.75
2019-04-16T07:49:37.771Z,13.88
2019-04-16T07:50:58.163Z,13.70
2019-04-16T07:52:38.942Z,13.74
2019-04-16T07:54:02.763Z,14.27
2019-04-16T07:55:39.431Z,14.27
2019-04-16T07:57:05.144Z,13.56
2019-04-16T07:58:08.902Z,13.56
2019-04-16T07:59:11.734Z,14.17
2019-04-16T08:00:17.849Z,14.63
2019-04-16T08:01:21.106Z,15.08
2019-04-16T08:02:26.863Z,15.08
2019-04-16T08:03:30.325Z,14.44
2019-04-16T08:04:39.028Z,14.03
2019-04-16T08:05:42.036Z,14.41
2019-04-16T08:06:47.418Z,14.41
2019-04-16T08:07:53.869Z,14.45
2019-04-16T08:08:58.513Z,13.78
2019-04-16T08:10:04.023Z,13.78
2019-04-16T08:11:11.117Z,13.57
2019-04-16T08:12:29.456Z,13.58
2019-04-16T08:13:24.813Z,13.39
2019-04-16T08:14:30.114Z,13.53
2019-04-16T08:15:33.222Z,13.66
2019-04-16T08:16:47.352Z,13.55
2019-04-16T08:17:40.638Z,13.61
2019-04-16T08:18:55.065Z,13.77
2019-04-16T08:20:00.032Z,14.42
2019-04-16T08:21:10.294Z,14.87
2019-04-16T08:22:09.048Z,14.85
2019-04-16T08:23:38.863Z,14.55
2019-04-16T08:24:43.479Z,13.90
2019-04-16T08:25:47.053Z,14.08
2019-04-16T08:26:49.968Z,14.58
2019-04-16T08:27:54.037Z,15.05
2019-04-16T08:28:59.995Z,15.28
2019-04-16T08:30:04.064Z,15.28
2019-04-16T08:31:12.303Z,14.69
2019-04-16T08:32:16.072Z,14.69
2019-04-16T08:33:19.926Z,14.60
2019-04-16T08:34:22.819Z,14.33
2019-04-16T08:35:25.768Z,14.33
2019-04-16T08:36:28.766Z,14.33
2019-04-16T08:37:32.504Z,14.89
2019-04-16T08:38:38.495Z,15.04
2019-04-16T08:39:41.776Z,15.04
2019-04-16T08:40:46.333Z,14.95
2019-04-16T08:41:52.071Z,15.92
2019-04-16T08:42:57.007Z,15.92
2019-04-16T08:44:03.831Z,15.69
2019-04-16T08:45:08.428Z,15.17
2019-04-16T08:46:19.915Z,15.17
2019-04-16T08:47:32.488Z,14.42
2019-04-16T08:48:35.355Z,14.42
2019-04-16T08:49:38.640Z,14.35
2019-04-16T08:50:42.243Z,14.45
2019-04-16T08:51:45.247Z,14.16
2019-04-16T08:52:54.234Z,14.67
2019-04-16T08:54:00.104Z,15.02
2019-04-16T08:55:03.191Z,14.37
2019-04-16T08:56:06.220Z,14.27
2019-04-16T08:57:10.759Z,14.30
2019-04-16T08:58:13.690Z,14.65
2019-04-16T08:59:16.644Z,14.81
2019-04-16T09:00:20.907Z,14.38
2019-04-16T09:01:29.394Z,14.62
2019-04-16T09:02:34.264Z,15.02
2019-04-16T09:03:37.115Z,14.93
2019-04-16T09:04:40.103Z,15.46
2019-04-16T09:05:43.030Z,15.17
2019-04-16T09:06:49.395Z,15.62
2019-04-16T09:07:52.225Z,15.62
2019-04-16T09:09:24.444Z,15.64
2019-04-16T09:10:30.145Z,14.75
2019-04-16T09:11:35.011Z,15.02
2019-04-16T09:12:41.380Z,15.27
2019-04-16T09:13:48.119Z,15.27
2019-04-16T09:14:56.068Z,15.07
2019-04-16T09:16:01.308Z,15.16
2019-04-16T09:17:32.113Z,15.62
2019-04-16T09:18:51.806Z,15.62
2019-04-16T09:20:10.669Z,15.81
2019-04-16T09:21:13.911Z,15.81
2019-04-16T09:22:17.155Z,15.70
2019-04-16T09:23:22.880Z,15.68
2019-04-16T09:24:43.460Z,15.03
2019-04-16T09:26:14.010Z,15.25
2019-04-16T09:27:34.511Z,15.14
2019-04-16T09:28:56.235Z,15.22
2019-04-16T09:30:17.789Z,15.11
2019-04-16T09:31:47.131Z,15.32
2019-04-16T09:33:21.093Z,15.32
2019-04-16T09:34:45.897Z,15.42
2019-04-16T09:35:58.603Z,15.28
2019-04-16T09:37:36.205Z,15.52
2019-04-16T09:38:58.040Z,15.97
2019-04-16T09:40:18.581Z,16.16
2019-04-16T09:41:51.764Z,16.17
2019-04-16T09:42:54.998Z,16.17
2019-04-16T09:43:59.621Z,15.98
2019-04-16T09:45:07.624Z,15.94
2019-04-16T09:46:17.613Z,16.45
2019-04-16T09:47:17.376Z,16.45
2019-04-16T09:48:20.252Z,16.88
2019-04-16T09:49:23.492Z,17.02
2019-04-16T09:50:26.335Z,17.02
2019-04-16T09:51:29.167Z,16.34
2019-04-16T09:52:32.054Z,15.76
2019-04-16T09:53:40.002Z,15.76
2019-04-16T09:54:41.474Z,16.27
2019-04-16T09:55:50.336Z,16.74
2019-04-16T09:56:56.839Z,16.62
2019-04-16T09:58:05.988Z,16.47
2019-04-16T09:59:10.981Z,16.57
2019-04-16T10:00:20.432Z,16.75
2019-04-16T10:01:24.647Z,16.75
2019-04-16T10:02:33.010Z,17.09
2019-04-16T10:03:41.300Z,17.44
2019-04-16T10:04:44.240Z,17.16
2019-04-16T10:05:49.325Z,16.50
2019-04-16T10:06:52.176Z,16.03
2019-04-16T10:07:56.968Z,16.14
2019-04-16T10:09:02.947Z,16.01
2019-04-16T10:10:06.437Z,16.08
2019-04-16T10:11:09.336Z,16.41
2019-04-16T10:12:12.722Z,16.11
2019-04-16T10:13:29.161Z,16.03
2019-04-16T10:14:22.485Z,16.24
2019-04-16T10:15:25.856Z,16.32
2019-04-16T10:16:30.011Z,16.27
2019-04-16T10:17:34.681Z,15.94
2019-04-16T10:18:41.746Z,16.28
2019-04-16T10:19:44.704Z,16.78
2019-04-16T10:20:55.236Z,16.27
2019-04-16T10:21:58.465Z,15.94
2019-04-16T10:23:05.604Z,16.18
2019-04-16T10:24:36.427Z,16.06
2019-04-16T10:25:39.439Z,16.06
2019-04-16T10:26:42.393Z,16.31
2019-04-16T10:28:05.057Z,16.02
2019-04-16T10:29:09.699Z,16.14
2019-04-16T10:43:44.682Z,16.76
2019-04-16T10:44:54.418Z,16.72
2019-04-16T10:46:04.015Z,16.83
2019-04-16T10:47:35.606Z,16.79
2019-04-16T10:49:11.955Z,16.84
2019-04-16T10:50:51.424Z,17.41
2019-04-16T10:52:08.242Z,17.78
2019-04-16T10:53:40.631Z,17.78
2019-04-16T10:55:12.164Z,17.66
2019-04-16T10:56:33.343Z,17.66
2019-04-16T10:58:10.162Z,17.47
2019-04-16T10:59:31.197Z,17.30
2019-04-16T11:00:46.272Z,16.61
2019-04-16T11:01:58.523Z,16.61
2019-04-16T11:03:05.039Z,16.76
2019-04-16T11:04:16.535Z,17.02
2019-04-16T11:05:47.497Z,17.27
2019-04-16T11:06:51.722Z,17.27
2019-04-16T11:08:00.651Z,17.11
2019-04-16T11:09:07.387Z,17.09
2019-04-16T11:10:11.890Z,17.49
2019-04-16T11:11:21.570Z,17.45
2019-04-16T11:12:27.077Z,17.19
2019-04-16T11:13:33.115Z,17.39
2019-04-16T11:14:36.183Z,17.71
2019-04-16T11:15:39.805Z,17.67
2019-04-16T11:16:43.882Z,17.26
2019-04-16T11:17:47.054Z,17.69
2019-04-16T11:18:50.199Z,17.72
2019-04-16T11:19:54.282Z,17.72
2019-04-16T11:21:19.170Z,16.68
2019-04-16T11:22:22.165Z,17.33
2019-04-16T11:23:25.331Z,16.83
2019-04-16T11:24:37.349Z,17.01
2019-04-16T11:25:40.234Z,16.78
2019-04-16T11:26:44.694Z,16.86
2019-04-16T11:27:47.873Z,16.60
2019-04-16T11:28:51.040Z,16.37
2019-04-16T11:29:54.861Z,16.55
2019-04-16T11:30:59.475Z,16.55
2019-04-16T11:32:02.976Z,17.11
2019-04-16T11:33:05.943Z,17.11
2019-04-16T11:34:10.430Z,17.17
2019-04-16T11:35:17.005Z,16.95
2019-04-16T11:36:21.122Z,16.86
2019-04-16T11:37:24.501Z,17.05
2019-04-16T11:38:27.516Z,17.74
2019-04-16T11:39:30.753Z,17.82
2019-04-16T11:40:33.792Z,17.56
2019-04-16T11:41:36.695Z,17.26
2019-04-16T11:42:39.529Z,17.13
2019-04-16T11:43:45.549Z,16.79
2019-04-16T11:44:50.229Z,16.79
2019-04-16T11:45:54.621Z,16.77
2019-04-16T11:46:57.583Z,16.94
2019-04-16T11:48:00.788Z,16.91
2019-04-16T11:49:04.483Z,16.91
2019-04-16T11:50:07.699Z,16.92
2019-04-16T11:51:11.698Z,16.94
2019-04-16T11:52:15.930Z,17.14
2019-04-16T11:53:23.910Z,17.36
2019-04-16T11:54:28.193Z,17.59
2019-04-16T11:55:32.274Z,17.59
2019-04-16T11:56:35.516Z,17.10
2019-04-16T11:57:41.463Z,17.01
2019-04-16T11:58:45.860Z,17.01
2019-04-16T11:59:48.929Z,17.09
2019-04-16T12:01:00.281Z,17.24
2019-04-16T12:02:26.216Z,18.03
2019-04-16T12:03:36.542Z,17.56
2019-04-16T12:05:01.709Z,17.26
2019-04-16T12:06:28.270Z,17.16
2019-04-16T12:07:38.232Z,17.16
2019-04-16T12:09:03.212Z,17.77
2019-04-16T12:10:23.280Z,17.76
2019-04-16T12:11:35.252Z,17.85
2019-04-16T12:12:58.434Z,17.34
2019-04-16T12:14:10.265Z,17.15
2019-04-16T12:15:21.873Z,17.31
2019-04-16T12:16:43.664Z,17.64
2019-04-16T12:18:13.934Z,17.71
2019-04-16T12:19:35.427Z,17.86
2019-04-16T12:20:57.381Z,17.86
2019-04-16T12:22:25.363Z,17.82
2019-04-16T12:24:03.898Z,17.40
2019-04-16T12:25:26.588Z,18.42
2019-04-16T12:26:53.438Z,18.36
2019-04-16T12:28:18.291Z,18.05
2019-04-16T12:29:51.411Z,17.82
2019-04-16T12:31:17.585Z,17.97
2019-04-16T12:32:37.162Z,17.97
2019-04-16T12:33:58.166Z,18.48
2019-04-16T12:35:10.773Z,18.48
2019-04-16T12:36:41.578Z,18.37
2019-04-16T12:38:01.671Z,18.37
2019-04-16T12:39:23.305Z,18.43
2019-04-16T12:40:51.591Z,18.06
2019-04-16T12:42:21.943Z,18.09
2019-04-16T12:43:32.043Z,18.09
2019-04-16T12:45:00.103Z,18.31
2019-04-16T12:46:19.656Z,18.19
2019-04-16T12:47:34.235Z,18.03
2019-04-16T12:49:10.556Z,18.03
2019-04-16T12:51:57.650Z,18.04
2019-04-16T12:53:31.343Z,17.98
2019-04-16T12:54:58.253Z,18.23
2019-04-16T12:56:25.293Z,18.21
2019-04-16T12:57:47.278Z,18.21
2019-04-16T12:59:09.953Z,18.51
2019-04-16T13:00:38.108Z,17.69
2019-04-16T13:02:03.154Z,18.42
2019-04-16T13:03:22.525Z,18.42
2019-04-16T13:04:52.774Z,18.75
2019-04-16T13:06:14.827Z,19.56
2019-04-16T13:07:38.823Z,19.56
2019-04-16T13:08:45.844Z,19.72
2019-04-16T13:10:08.130Z,19.25
2019-04-16T13:11:47.433Z,18.57
2019-04-16T13:13:08.990Z,18.55
2019-04-16T13:14:32.111Z,18.75
2019-04-16T13:16:02.094Z,18.75
2019-04-16T13:17:18.702Z,18.42
2019-04-16T13:18:36.049Z,18.76
2019-04-16T13:19:58.062Z,18.76
2019-04-16T13:21:25.624Z,18.91
2019-04-16T13:22:32.505Z,18.92
2019-04-16T13:23:40.232Z,18.92
2019-04-16T13:24:50.428Z,19.02
2019-04-16T13:26:00.027Z,18.62
2019-04-16T13:27:27.617Z,18.62
2019-04-16T13:28:33.254Z,18.38
2019-04-16T13:29:38.852Z,18.50
2019-04-16T13:30:42.380Z,18.03
2019-04-16T13:31:46.068Z,18.03
2019-04-16T13:32:49.528Z,18.26
2019-04-16T13:33:52.345Z,18.11
2019-04-16T13:34:58.016Z,18.10
2019-04-16T13:35:59.901Z,17.79
2019-04-16T13:37:04.312Z,18.29
2019-04-16T13:38:09.221Z,18.68
2019-04-16T13:39:29.116Z,18.68
2019-04-16T13:40:32.062Z,19.29
2019-04-16T13:41:37.366Z,18.32
2019-04-16T13:42:40.711Z,18.76
2019-04-16T13:43:48.051Z,19.21
2019-04-16T13:44:55.020Z,19.50
2019-04-16T13:45:59.776Z,19.28
2019-04-16T13:47:04.007Z,19.28
2019-04-16T13:48:16.501Z,18.75
2019-04-16T13:49:24.595Z,19.01
2019-04-16T13:50:47.669Z,19.11
2019-04-16T13:51:50.638Z,18.96
2019-04-16T13:52:59.417Z,19.01
2019-04-16T13:54:27.851Z,19.26
2019-04-16T13:55:51.640Z,18.73
2019-04-16T13:56:59.632Z,19.22
2019-04-16T13:58:17.165Z,19.22
2019-04-16T13:59:33.158Z,18.95
2019-04-16T14:00:41.632Z,19.88
2019-04-16T14:02:03.930Z,19.15
2019-04-16T14:03:12.230Z,19.44
2019-04-16T14:04:15.073Z,19.78
2019-04-16T14:05:18.304Z,19.90
2019-04-16T14:06:21.475Z,20.31
2019-04-16T14:07:29.480Z,20.31
2019-04-16T14:08:32.782Z,20.00
2019-04-16T14:09:35.680Z,20.19
2019-04-16T14:10:43.412Z,20.16
2019-04-16T14:11:51.058Z,19.59
2019-04-16T14:12:52.268Z,19.79
2019-04-16T14:13:55.177Z,19.79
2019-04-16T14:14:58.420Z,20.03
2019-04-16T14:16:05.982Z,20.22
2019-04-16T14:17:10.875Z,20.22
2019-04-16T14:18:16.681Z,20.02
2019-04-16T14:19:19.675Z,19.73
2019-04-16T14:20:23.345Z,19.60
2019-04-16T14:21:26.624Z,19.85
2019-04-16T14:22:30.007Z,20.28
2019-04-16T14:23:36.261Z,20.49
2019-04-16T14:24:41.408Z,20.49
2019-04-16T14:25:44.371Z,20.33
2019-04-16T14:26:47.810Z,20.33
2019-04-16T14:28:03.762Z,18.82
2019-04-16T14:29:12.347Z,18.63
2019-04-16T14:30:18.625Z,18.87
2019-04-16T14:31:23.397Z,18.32
2019-04-16T14:32:26.384Z,18.44
2019-04-16T14:33:45.417Z,18.69
2019-04-16T14:35:32.923Z,19.07
2019-04-16T14:36:12.189Z,19.07
2019-04-16T14:37:16.928Z,20.04
2019-04-16T14:38:28.304Z,19.72
2019-04-16T14:39:38.833Z,19.64
2019-04-16T14:40:42.303Z,19.64
2019-04-16T14:41:50.137Z,19.98
2019-04-16T14:42:57.426Z,19.87
2019-04-16T14:44:11.383Z,19.69
2019-04-16T14:45:21.873Z,19.42
2019-04-16T14:46:28.225Z,19.81
2019-04-16T14:47:29.892Z,19.81
2019-04-16T14:48:34.159Z,19.41
2019-04-16T14:49:37.116Z,19.41
2019-04-16T14:50:40.647Z,18.84
2019-04-16T14:51:44.011Z,18.98
2019-04-16T14:52:52.146Z,18.99
2019-04-16T14:54:13.799Z,20.66
2019-04-16T14:55:42.024Z,21.49
2019-04-16T14:57:03.421Z,21.24
2019-04-16T14:58:11.813Z,21.24
2019-04-16T14:59:33.305Z,20.34
2019-04-16T15:00:48.412Z,21.61
2019-04-16T15:02:00.784Z,21.81
2019-04-16T15:03:15.645Z,22.06
2019-04-16T15:04:26.609Z,22.02
2019-04-16T15:05:44.709Z,22.40
2019-04-16T15:07:10.142Z,22.02
2019-04-16T15:08:32.392Z,22.78
2019-04-16T15:10:02.432Z,21.58
2019-04-16T15:11:29.131Z,21.48
2019-04-16T15:12:45.494Z,21.07
2019-04-16T15:14:13.778Z,20.48
2019-04-16T15:15:41.091Z,20.48
2019-04-16T15:17:02.442Z,20.16
2019-04-16T15:18:16.878Z,20.21
2019-04-16T15:19:35.106Z,20.75
2019-04-16T15:20:55.670Z,21.84
2019-04-16T15:22:16.456Z,22.04
2019-04-16T15:23:41.044Z,22.04
2019-04-16T15:25:02.340Z,21.20
2019-04-16T15:26:27.545Z,20.73
2019-04-16T15:28:04.047Z,19.43
2019-04-16T15:29:15.845Z,19.62
2019-04-16T15:30:32.353Z,20.07
2019-04-16T15:32:10.361Z,19.72
2019-04-16T15:33:30.528Z,19.38
2019-04-16T15:34:43.127Z,19.15
2019-04-16T15:35:50.418Z,19.56
2019-04-16T15:37:12.253Z,19.88
2019-04-16T15:38:21.045Z,19.69
2019-04-16T15:39:41.146Z,19.56
2019-04-16T15:40:47.461Z,19.56